Time;durP1;ratioP1;P1;durP2;ratioP2;P2;SDS_P1;SDS_P2;PMS_P1;PMS_P2;Temp;Humidity;BMP_temperature;BMP_pressure;BME280_temperature;BME280_humidity;BME280_pressure;Samples;Min_cycle;Max_cycle;Signal;HPM_P1;HPM_P2
2022/10/19 00:01:29;;;;;;;4.68;4.00;;;;;;;;;;5052502;28;20043;-68
2022/10/19 00:03:55;;;;;;;4.80;4.30;;;;;;;;;;5052390;28;20114;-66
2022/10/19 00:06:29;;;;;;;6.60;4.93;;;;;;;;;;5052290;28;20143;-67
2022/10/19 00:09:08;;;;;;;7.22;4.45;;;;;;;;;;5052507;28;20474;-67
2022/10/19 00:11:36;;;;;;;6.30;4.53;;;;;;;;;;5052541;28;20293;-66
2022/10/19 00:14:02;;;;;;;5.57;4.30;;;;;;;;;;5052474;28;20113;-67
2022/10/19 00:16:31;;;;;;;6.05;4.57;;;;;;;;;;5052476;28;20075;-66
2022/10/19 00:18:58;;;;;;;4.70;4.15;;;;;;;;;;5052095;28;20021;-66
2022/10/19 00:21:25;;;;;;;7.18;4.30;;;;;;;;;;5052138;28;20033;-67
2022/10/19 00:23:51;;;;;;;6.07;4.22;;;;;;;;;;5052060;28;20495;-66
2022/10/19 00:26:16;;;;;;;6.28;4.55;;;;;;;;;;5052020;28;20033;-67
2022/10/19 00:28:43;;;;;;;5.32;4.13;;;;;;;;;;5052119;28;20029;-66
2022/10/19 00:31:14;;;;;;;5.10;4.60;;;;;;;;;;5052060;28;20033;-66
2022/10/19 00:33:41;;;;;;;5.40;4.35;;;;;;;;;;5052352;28;20021;-67
2022/10/19 00:36:15;;;;;;;5.10;4.28;;;;;;;;;;5052247;28;20449;-67
2022/10/19 00:38:41;;;;;;;7.45;4.50;;;;;;;;;;5052554;28;20036;-67
2022/10/19 00:41:07;;;;;;;6.47;4.30;;;;;;;;;;5056179;28;20028;-65
2022/10/19 00:44:06;;;;;;;6.65;4.72;;;;;;;;;;5055890;28;20477;-67
2022/10/19 00:46:34;;;;;;;10.23;4.60;;;;;;;;;;5055928;28;20388;-67
2022/10/19 00:49:24;;;;;;;5.03;4.13;;;;;;;;;;5056172;28;20385;-66
2022/10/19 00:51:54;;;;;;;6.70;5.03;;;;;;;;;;5056101;28;20021;-64
2022/10/19 00:54:20;;;;;;;5.00;4.22;;;;;;;;;;5055727;28;20469;-64
2022/10/19 00:56:50;;;;;;;6.07;4.55;;;;;;;;;;5055696;28;20033;-64
2022/10/19 00:59:19;;;;;;;6.10;4.35;;;;;;;;;;5055491;28;20052;-64
2022/10/19 01:01:46;;;;;;;7.05;4.80;;;;;;;;;;5055855;28;20128;-65
2022/10/19 01:04:12;;;;;;;8.25;4.50;;;;;;;;;;5055473;28;20025;-64
2022/10/19 01:06:39;;;;;;;5.97;4.75;;;;;;;;;;5055522;28;20107;-66
2022/10/19 01:09:06;;;;;;;5.07;4.35;;;;;;;;;;5055400;28;20028;-64
2022/10/19 01:11:56;;;;;;;5.65;4.50;;;;;;;;;;5055410;28;20071;-64
2022/10/19 01:14:47;;;;;;;5.20;4.45;;;;;;;;;;5055292;28;20046;-66
2022/10/19 01:17:34;;;;;;;6.65;4.82;;;;;;;;;;5055288;28;20116;-66
2022/10/19 01:20:18;;;;;;;6.13;5.00;;;;;;;;;;5055287;28;20086;-67
2022/10/19 01:23:17;;;;;;;7.55;4.95;;;;;;;;;;5055201;28;20029;-65
2022/10/19 01:25:51;;;;;;;6.50;5.00;;;;;;;;;;5055404;28;20021;-64
2022/10/19 01:28:17;;;;;;;4.97;4.20;;;;;;;;;;5055416;28;20025;-64
2022/10/19 01:30:42;;;;;;;6.47;4.78;;;;;;;;;;5055063;28;20384;-64
2022/10/19 01:33:17;;;;;;;7.22;4.60;;;;;;;;;;5054992;28;20503;-65
2022/10/19 01:36:05;;;;;;;5.90;4.75;;;;;;;;;;5055268;28;20063;-67
2022/10/19 01:38:50;;;;;;;5.78;4.38;;;;;;;;;;5054955;28;20032;-66
2022/10/19 01:41:16;;;;;;;6.47;4.97;;;;;;;;;;5054742;28;20036;-67
2022/10/19 01:44:02;;;;;;;5.82;4.70;;;;;;;;;;5055196;28;20025;-68
2022/10/19 01:46:38;;;;;;;6.03;4.47;;;;;;;;;;5055345;28;20104;-65
2022/10/19 01:49:07;;;;;;;6.50;4.53;;;;;;;;;;5054718;28;20484;-64
2022/10/19 01:51:38;;;;;;;5.73;4.53;;;;;;;;;;5054202;28;20086;-67
2022/10/19 01:54:08;;;;;;;5.03;4.50;;;;;;;;;;5054687;28;20126;-67
2022/10/19 01:56:34;;;;;;;;;;;;;;;;;;5055218;28;20056;-66
2022/10/19 01:59:03;;;;;;;7.75;4.95;;;;;;;;;;5054316;28;19923;-65
2022/10/19 02:01:32;;;;;;;5.43;4.20;;;;;;;;;;5054451;28;20433;-67
2022/10/19 02:03:59;;;;;;;5.82;4.55;;;;;;;;;;5054463;28;20264;-64
2022/10/19 02:06:25;;;;;;;6.97;4.82;;;;;;;;;;5054624;28;20047;-64
2022/10/19 02:08:52;;;;;;;6.32;4.93;;;;;;;;;;5054523;28;20512;-66
2022/10/19 02:11:20;;;;;;;5.03;4.22;;;;;;;;;;5053082;28;20500;-67
2022/10/19 02:13:51;;;;;;;6.72;5.10;;;;;;;;;;5054234;28;20397;-66
2022/10/19 02:16:29;;;;;;;6.75;5.20;;;;;;;;;;5054262;28;20021;-66
2022/10/19 02:18:56;;;;;;;4.47;4.05;;;;;;;;;;5054128;28;20017;-64
2022/10/19 02:21:22;;;;;;;5.47;4.30;;;;;;;;;;5054276;28;20024;-64
2022/10/19 02:23:48;;;;;;;5.93;4.65;;;;;;;;;;5054098;28;20021;-66
2022/10/19 02:26:13;;;;;;;5.60;4.88;;;;;;;;;;5053990;28;20029;-67
2022/10/19 02:28:39;;;;;;;6.05;4.80;;;;;;;;;;5054264;28;20028;-66
2022/10/19 02:31:05;;;;;;;5.00;4.10;;;;;;;;;;5053977;28;20380;-66
2022/10/19 02:33:31;;;;;;;6.88;4.75;;;;;;;;;;5053851;28;20108;-64
2022/10/19 02:35:57;;;;;;;5.43;4.70;;;;;;;;;;5053827;28;20110;-64
2022/10/19 02:38:23;;;;;;;6.63;4.70;;;;;;;;;;5053769;28;20032;-65
2022/10/19 02:41:28;;;;;;;5.38;4.30;;;;;;;;;;5053673;28;20119;-66
2022/10/19 02:44:00;;;;;;;5.82;4.43;;;;;;;;;;5053632;28;20076;-66
2022/10/19 02:46:38;;;;;;;5.38;4.75;;;;;;;;;;5053750;28;20548;-64
2022/10/19 02:49:06;;;;;;;11.43;4.47;;;;;;;;;;5053684;28;20147;-65
2022/10/19 02:51:34;;;;;;;5.72;4.50;;;;;;;;;;5053802;28;20431;-66
2022/10/19 02:54:00;;;;;;;5.05;4.40;;;;;;;;;;5053822;28;20032;-64
2022/10/19 02:56:26;;;;;;;6.50;4.43;;;;;;;;;;5053427;28;20029;-65
2022/10/19 02:58:51;;;;;;;4.60;4.20;;;;;;;;;;5053232;28;20151;-65
2022/10/19 03:01:17;;;;;;;5.28;4.45;;;;;;;;;;5053588;28;20029;-67
2022/10/19 03:03:43;;;;;;;5.93;4.45;;;;;;;;;;5053307;28;20031;-65
2022/10/19 03:06:08;;;;;;;5.43;4.22;;;;;;;;;;5053300;28;20036;-64
2022/10/19 03:08:34;;;;;;;5.18;4.55;;;;;;;;;;5053131;28;20025;-65
2022/10/19 03:11:00;;;;;;;5.30;4.30;;;;;;;;;;5053447;28;20036;-67
2022/10/19 03:13:25;;;;;;;4.63;3.97;;;;;;;;;;5053315;28;20082;-66
2022/10/19 03:15:51;;;;;;;6.53;4.63;;;;;;;;;;5053089;28;20067;-64
2022/10/19 03:18:17;;;;;;;6.18;4.43;;;;;;;;;;5053000;28;20032;-67
2022/10/19 03:20:42;;;;;;;4.53;4.03;;;;;;;;;;5051592;28;20038;-68
2022/10/19 03:23:08;;;;;;;5.72;4.47;;;;;;;;;;5052982;28;20035;-67
2022/10/19 03:25:33;;;;;;;4.78;4.20;;;;;;;;;;5052862;28;20028;-65
2022/10/19 03:27:59;;;;;;;5.30;4.45;;;;;;;;;;5052792;28;20029;-64
2022/10/19 03:30:24;;;;;;;4.70;4.20;;;;;;;;;;5053126;28;20040;-66
2022/10/19 03:32:50;;;;;;;4.95;4.15;;;;;;;;;;5053084;28;20029;-65
2022/10/19 03:35:15;;;;;;;4.72;4.22;;;;;;;;;;5052702;28;20402;-66
2022/10/19 03:37:41;;;;;;;5.20;4.03;;;;;;;;;;5053025;28;20029;-67
2022/10/19 03:40:07;;;;;;;5.80;4.72;;;;;;;;;;5052887;28;20485;-64
2022/10/19 03:42:32;;;;;;;6.28;4.32;;;;;;;;;;5052603;28;20369;-66
2022/10/19 03:44:58;;;;;;;5.78;4.50;;;;;;;;;;5052617;28;20020;-65
2022/10/19 03:47:23;;;;;;;5.05;4.30;;;;;;;;;;5052441;28;20104;-64
2022/10/19 03:49:49;;;;;;;5.22;4.47;;;;;;;;;;5051276;28;20025;-67
2022/10/19 03:52:18;;;;;;;7.00;4.60;;;;;;;;;;5052753;28;20021;-67
2022/10/19 03:54:44;;;;;;;6.75;4.75;;;;;;;;;;5052421;28;20025;-65
2022/10/19 03:57:10;;;;;;;6.20;4.70;;;;;;;;;;5052444;28;20032;-67
2022/10/19 03:59:36;;;;;;;5.50;4.72;;;;;;;;;;5050904;28;20041;-66
2022/10/19 04:02:01;;;;;;;4.60;4.05;;;;;;;;;;5052671;28;20150;-66
2022/10/19 04:04:27;;;;;;;5.78;4.55;;;;;;;;;;5052611;28;20025;-65
2022/10/19 04:06:52;;;;;;;5.55;4.40;;;;;;;;;;5052260;28;20025;-66
2022/10/19 04:09:20;;;;;;;5.10;4.38;;;;;;;;;;5052290;28;20469;-67
2022/10/19 04:11:45;;;;;;;5.47;4.30;;;;;;;;;;5052262;28;20068;-66
2022/10/19 04:14:16;;;;;;;4.43;3.90;;;;;;;;;;5051823;28;20057;-65
2022/10/19 04:16:42;;;;;;;7.15;4.47;;;;;;;;;;5052281;28;20147;-65
2022/10/19 04:19:12;;;;;;;6.03;4.40;;;;;;;;;;5052196;28;20036;-65
2022/10/19 04:21:39;;;;;;;;;;;;;;;;;;5052833;28;20033;-65
2022/10/19 04:24:11;;;;;;;5.35;4.18;;;;;;;;;;5052129;28;19924;-64
2022/10/19 04:26:54;;;;;;;5.93;4.20;;;;;;;;;;5052062;28;20163;-65
2022/10/19 04:29:21;;;;;;;5.70;4.35;;;;;;;;;;5052130;28;20021;-64
2022/10/19 04:31:51;;;;;;;4.63;4.00;;;;;;;;;;5052098;28;20493;-66
2022/10/19 04:34:17;;;;;;;4.90;4.22;;;;;;;;;;5052547;28;20025;-64
2022/10/19 04:36:43;;;;;;;4.43;4.03;;;;;;;;;;5052007;28;20040;-65
2022/10/19 04:39:09;;;;;;;4.97;4.40;;;;;;;;;;5052302;28;20029;-64
2022/10/19 04:41:36;;;;;;;6.50;4.70;;;;;;;;;;5052166;28;20107;-64
2022/10/19 04:44:05;;;;;;;5.82;4.15;;;;;;;;;;5052259;28;20074;-64
2022/10/19 04:46:31;;;;;;;4.85;4.18;;;;;;;;;;5052241;28;20083;-65
2022/10/19 04:48:56;;;;;;;4.93;4.10;;;;;;;;;;5052147;28;20373;-64
2022/10/19 04:51:24;;;;;;;5.15;4.20;;;;;;;;;;5051016;28;20033;-64
2022/10/19 04:53:49;;;;;;;5.05;4.53;;;;;;;;;;5052376;28;20048;-64
2022/10/19 04:56:17;;;;;;;4.80;4.30;;;;;;;;;;5051823;28;20361;-65
2022/10/19 04:58:46;;;;;;;6.55;4.55;;;;;;;;;;5051527;28;20460;-67
2022/10/19 05:01:15;;;;;;;5.53;4.10;;;;;;;;;;5051945;28;20053;-66
2022/10/19 05:03:41;;;;;;;5.00;4.30;;;;;;;;;;5052000;28;20041;-66
2022/10/19 05:06:08;;;;;;;6.50;4.20;;;;;;;;;;5051952;28;20028;-66
2022/10/19 05:08:34;;;;;;;5.15;4.20;;;;;;;;;;5051930;28;20061;-67
2022/10/19 05:11:03;;;;;;;6.05;4.35;;;;;;;;;;5051926;28;20025;-65
2022/10/19 05:13:31;;;;;;;6.50;4.28;;;;;;;;;;5051652;28;20507;-66
2022/10/19 05:15:58;;;;;;;4.70;4.10;;;;;;;;;;5051565;28;20029;-67
2022/10/19 05:18:24;;;;;;;4.90;4.40;;;;;;;;;;5051622;28;20025;-66
2022/10/19 05:20:49;;;;;;;5.80;4.63;;;;;;;;;;5051742;28;20033;-65
2022/10/19 05:23:15;;;;;;;5.85;4.30;;;;;;;;;;5051817;28;20350;-67
2022/10/19 05:25:40;;;;;;;5.22;3.92;;;;;;;;;;5051973;28;20107;-65
2022/10/19 05:28:06;;;;;;;5.13;4.30;;;;;;;;;;5055198;28;20536;-66
2022/10/19 05:30:31;;;;;;;4.70;3.80;;;;;;;;;;5054941;28;20032;-65
2022/10/19 05:32:57;;;;;;;5.45;4.10;;;;;;;;;;5055227;28;20095;-64
2022/10/19 05:35:23;;;;;;;6.10;4.40;;;;;;;;;;5055193;28;20370;-65
2022/10/19 05:37:54;;;;;;;4.90;3.78;;;;;;;;;;5054916;28;20486;-65
2022/10/19 05:40:19;;;;;;;5.00;4.07;;;;;;;;;;5054718;28;20079;-64
2022/10/19 05:42:45;;;;;;;4.75;3.90;;;;;;;;;;5054756;28;20025;-65
2022/10/19 05:45:11;;;;;;;5.65;4.40;;;;;;;;;;5053484;28;20032;-64
2022/10/19 05:47:37;;;;;;;4.95;4.28;;;;;;;;;;5054883;28;20107;-65
2022/10/19 05:50:06;;;;;;;5.25;3.97;;;;;;;;;;5054630;28;20549;-66
2022/10/19 05:52:32;;;;;;;4.40;4.00;;;;;;;;;;5054626;28;20025;-65
2022/10/19 05:54:57;;;;;;;6.78;4.30;;;;;;;;;;5054870;28;20028;-66
2022/10/19 05:57:23;;;;;;;8.60;4.28;;;;;;;;;;5054545;28;20029;-65
2022/10/19 05:59:49;;;;;;;4.50;4.05;;;;;;;;;;5054466;28;20097;-63
2022/10/19 06:02:14;;;;;;;4.25;3.85;;;;;;;;;;5053340;28;20431;-64
2022/10/19 06:04:40;;;;;;;5.32;4.22;;;;;;;;;;5054455;28;20028;-66
2022/10/19 06:07:05;;;;;;;6.25;4.03;;;;;;;;;;5054254;28;20036;-65
2022/10/19 06:09:34;;;;;;;4.57;3.83;;;;;;;;;;5054257;28;20021;-66
2022/10/19 06:12:00;;;;;;;4.88;4.20;;;;;;;;;;5054285;28;20114;-66
2022/10/19 06:14:26;;;;;;;5.88;4.70;;;;;;;;;;5054450;28;20072;-65
2022/10/19 06:16:51;;;;;;;4.55;4.10;;;;;;;;;;5050302;28;20021;-65
2022/10/19 06:19:17;;;;;;;5.25;4.50;;;;;;;;;;5050541;28;20028;-65
2022/10/19 06:21:44;;;;;;;5.75;4.10;;;;;;;;;;5054335;28;20488;-68
2022/10/19 06:24:10;;;;;;;4.28;3.85;;;;;;;;;;5050291;28;20052;-65
2022/10/19 06:26:36;;;;;;;5.97;4.43;;;;;;;;;;5051527;28;20021;-68
2022/10/19 06:29:03;;;;;;;5.28;4.32;;;;;;;;;;5050638;28;20017;-64
2022/10/19 06:31:31;;;;;;;5.97;4.45;;;;;;;;;;5052949;28;20043;-69
2022/10/19 06:33:56;;;;;;;4.82;4.13;;;;;;;;;;5049067;28;20054;-67
2022/10/19 06:36:25;;;;;;;4.38;3.97;;;;;;;;;;5050854;28;20017;-65
2022/10/19 06:38:52;;;;;;;5.03;4.10;;;;;;;;;;5046045;28;20053;-69
2022/10/19 06:41:18;;;;;;;4.72;3.88;;;;;;;;;;5052758;28;20028;-67
2022/10/19 06:43:47;;;;;;;4.82;4.35;;;;;;;;;;5052601;28;20029;-65
2022/10/19 06:46:19;;;;;;;5.22;4.30;;;;;;;;;;5053616;28;20091;-69
2022/10/19 06:48:48;;;;;;;5.57;4.30;;;;;;;;;;5052525;28;20029;-66
2022/10/19 06:51:14;;;;;;;4.57;4.18;;;;;;;;;;5046635;28;20033;-68
2022/10/19 06:53:40;;;;;;;7.50;4.50;;;;;;;;;;5049824;28;20025;-65
2022/10/19 06:56:06;;;;;;;6.13;4.35;;;;;;;;;;5050637;28;20028;-65
2022/10/19 06:58:36;;;;;;;13.80;8.18;;;;;;;;;;5047848;28;20051;-67
2022/10/19 07:01:03;;;;;;;13.23;9.32;;;;;;;;;;5051792;28;20128;-68
2022/10/19 07:03:29;;;;;;;15.25;8.93;;;;;;;;;;5048893;28;20759;-64
2022/10/19 07:05:56;;;;;;;9.82;6.60;;;;;;;;;;5050356;28;20555;-67
2022/10/19 07:08:23;;;;;;;7.22;5.85;;;;;;;;;;5050842;28;20485;-68
2022/10/19 07:10:56;;;;;;;9.52;6.88;;;;;;;;;;5049732;28;20040;-68
2022/10/19 07:13:22;;;;;;;7.40;5.72;;;;;;;;;;5045902;28;20750;-67
2022/10/19 07:15:48;;;;;;;9.50;5.88;;;;;;;;;;5050085;28;20159;-66
2022/10/19 07:18:15;;;;;;;13.45;6.32;;;;;;;;;;5049206;28;20029;-65
2022/10/19 07:20:40;;;;;;;9.57;6.40;;;;;;;;;;5050623;28;20033;-67
2022/10/19 07:23:06;;;;;;;7.22;5.82;;;;;;;;;;5051078;28;20078;-68
2022/10/19 07:25:32;;;;;;;6.72;5.30;;;;;;;;;;5052302;28;20047;-66
2022/10/19 07:27:58;;;;;;;8.40;5.63;;;;;;;;;;5052903;28;20025;-68
2022/10/19 07:30:24;;;;;;;12.68;6.28;;;;;;;;;;5052173;28;20246;-68
2022/10/19 07:32:49;;;;;;;9.50;6.10;;;;;;;;;;5035546;28;20052;-68
2022/10/19 07:35:15;;;;;;;11.85;6.30;;;;;;;;;;5051281;28;20067;-66
2022/10/19 07:37:40;;;;;;;13.13;6.38;;;;;;;;;;5051553;28;20051;-66
2022/10/19 07:40:06;;;;;;;8.80;6.15;;;;;;;;;;5050405;28;20029;-66
2022/10/19 07:42:32;;;;;;;13.20;6.07;;;;;;;;;;5050584;28;20035;-70
2022/10/19 07:44:58;;;;;;;11.70;5.75;;;;;;;;;;5049909;28;20099;-69
2022/10/19 07:47:23;;;;;;;20.52;6.82;;;;;;;;;;5049234;28;20024;-66
2022/10/19 07:49:49;;;;;;;9.88;5.93;;;;;;;;;;5050100;28;20020;-66
2022/10/19 07:52:14;;;;;;;12.10;5.97;;;;;;;;;;5030099;28;20469;-70
2022/10/19 07:54:40;;;;;;;12.70;6.22;;;;;;;;;;5050165;28;20032;-69
2022/10/19 07:57:05;;;;;;;13.95;6.18;;;;;;;;;;5052055;28;20727;-65
2022/10/19 07:59:31;;;;;;;13.10;6.10;;;;;;;;;;5051587;28;20083;-69
2022/10/19 08:01:57;;;;;;;11.57;5.68;;;;;;;;;;5050895;28;20060;-64
2022/10/19 08:04:23;;;;;;;13.25;5.97;;;;;;;;;;5049675;28;20103;-67
2022/10/19 08:06:48;;;;;;;11.35;6.18;;;;;;;;;;5049298;28;20566;-64
2022/10/19 08:09:14;;;;;;;9.75;5.97;;;;;;;;;;5041570;28;20021;-65
2022/10/19 08:11:40;;;;;;;11.57;6.05;;;;;;;;;;5048717;28;20025;-67
2022/10/19 08:14:05;;;;;;;15.07;6.10;;;;;;;;;;5050153;28;20096;-65
2022/10/19 08:16:43;;;;;;;12.73;5.90;;;;;;;;;;5047202;28;20722;-65
2022/10/19 08:19:14;;;;;;;15.75;6.35;;;;;;;;;;5049794;28;20032;-66
2022/10/19 08:21:42;;;;;;;8.35;5.78;;;;;;;;;;5050465;28;20033;-67
2022/10/19 08:24:08;;;;;;;12.80;6.07;;;;;;;;;;5050216;28;20036;-67
2022/10/19 08:26:37;;;;;;;11.35;6.25;;;;;;;;;;5048403;28;20051;-66
2022/10/19 08:29:14;;;;;;;12.23;5.95;;;;;;;;;;5047601;28;20029;-63
2022/10/19 08:31:40;;;;;;;9.73;6.32;;;;;;;;;;5050269;28;20025;-65
2022/10/19 08:34:07;;;;;;;18.55;6.07;;;;;;;;;;5050011;28;20033;-63
2022/10/19 08:36:34;;;;;;;12.88;6.07;;;;;;;;;;5049696;28;20025;-67
2022/10/19 08:39:01;;;;;;;14.40;7.57;;;;;;;;;;5049564;28;20116;-67
2022/10/19 08:41:51;;;;;;;15.77;8.20;;;;;;;;;;5038527;28;20071;-68
2022/10/19 08:44:24;;;;;;;;;;;;;;;;;;5029914;28;20133;-68
2022/10/19 08:47:09;;;;;;;20.40;7.90;;;;;;;;;;5030431;28;19947;-66
2022/10/19 08:49:35;;;;;;;13.77;8.68;;;;;;;;;;5030163;28;20025;-66
2022/10/19 08:52:09;;;;;;;15.30;8.63;;;;;;;;;;5030282;28;20103;-67
2022/10/19 08:54:51;;;;;;;11.95;8.32;;;;;;;;;;5030173;28;20033;-67
2022/10/19 08:57:32;;;;;;;14.10;8.27;;;;;;;;;;5030328;28;20385;-67
2022/10/19 09:00:09;;;;;;;14.60;7.78;;;;;;;;;;5031246;28;20140;-68
2022/10/19 09:02:49;;;;;;;14.23;8.50;;;;;;;;;;5034058;28;20037;-67
2022/10/19 09:05:43;;;;;;;16.48;8.00;;;;;;;;;;5034002;28;20504;-67
2022/10/19 09:08:10;;;;;;;11.45;7.88;;;;;;;;;;5034155;28;20033;-67
2022/10/19 09:10:39;;;;;;;19.13;8.00;;;;;;;;;;5033846;28;20037;-68
2022/10/19 09:13:23;;;;;;;11.23;8.32;;;;;;;;;;5034177;28;20038;-68
2022/10/19 09:15:51;;;;;;;12.15;8.75;;;;;;;;;;5033862;28;20025;-68
2022/10/19 09:18:32;;;;;;;13.75;7.72;;;;;;;;;;5033642;28;20025;-69
2022/10/19 09:21:05;;;;;;;14.20;8.43;;;;;;;;;;5033823;28;20060;-68
2022/10/19 09:23:36;;;;;;;11.23;7.97;;;;;;;;;;5033706;28;20079;-67
2022/10/19 09:26:04;;;;;;;14.07;8.07;;;;;;;;;;5033743;28;20028;-66
2022/10/19 09:28:48;;;;;;;13.75;8.15;;;;;;;;;;5033853;28;20026;-67
2022/10/19 09:31:38;;;;;;;12.70;8.02;;;;;;;;;;5033615;28;20566;-66
2022/10/19 09:34:41;;;;;;;14.13;7.53;;;;;;;;;;5033549;28;20121;-67
2022/10/19 09:37:06;;;;;;;12.35;7.80;;;;;;;;;;5033472;28;20262;-65
2022/10/19 09:39:34;;;;;;;14.18;7.15;;;;;;;;;;5033394;28;20095;-67
2022/10/19 09:42:38;;;;;;;14.48;7.47;;;;;;;;;;5033257;28;20033;-66
2022/10/19 09:45:32;;;;;;;12.20;7.85;;;;;;;;;;5010832;28;20034;-66
2022/10/19 09:47:58;;;;;;;12.15;7.75;;;;;;;;;;4989919;28;20398;-66
2022/10/19 09:50:26;;;;;;;10.55;7.72;;;;;;;;;;5030192;28;20493;-66
2022/10/19 09:52:54;;;;;;;12.88;7.93;;;;;;;;;;5053021;28;20477;-66
2022/10/19 09:55:36;;;;;;;14.65;7.40;;;;;;;;;;5053210;28;20029;-66
2022/10/19 09:58:24;;;;;;;13.20;7.85;;;;;;;;;;5052772;28;20055;-68
2022/10/19 10:00:55;;;;;;;25.60;8.15;;;;;;;;;;5053165;28;20031;-66
2022/10/19 10:03:34;;;;;;;13.55;7.88;;;;;;;;;;5052923;28;20029;-68
2022/10/19 10:06:15;;;;;;;14.98;8.50;;;;;;;;;;5053098;28;20110;-67
2022/10/19 10:08:57;;;;;;;12.15;7.50;;;;;;;;;;5052940;28;20017;-67
2022/10/19 10:11:26;;;;;;;15.45;7.50;;;;;;;;;;5052265;28;20112;-67
2022/10/19 10:13:54;;;;;;;9.93;7.75;;;;;;;;;;5052943;28;20107;-66
2022/10/19 10:16:22;;;;;;;11.32;7.32;;;;;;;;;;5052555;28;20114;-68
2022/10/19 10:18:55;;;;;;;13.32;6.82;;;;;;;;;;5036479;28;20487;-69
2022/10/19 10:21:33;;;;;;;12.10;7.10;;;;;;;;;;5033660;28;20033;-69
2022/10/19 10:24:11;;;;;;;17.63;7.32;;;;;;;;;;5032640;28;20470;-67
2022/10/19 10:26:39;;;;;;;12.82;6.85;;;;;;;;;;5032800;28;20029;-69
2022/10/19 10:29:25;;;;;;;9.10;6.78;;;;;;;;;;5031264;28;20025;-69
2022/10/19 10:31:59;;;;;;;11.80;7.00;;;;;;;;;;5032666;28;20041;-66
2022/10/19 10:34:37;;;;;;;11.27;6.82;;;;;;;;;;5032735;28;20036;-67
2022/10/19 10:37:12;;;;;;;12.63;7.07;;;;;;;;;;5032632;28;20049;-68
2022/10/19 10:39:42;;;;;;;12.35;6.65;;;;;;;;;;5032330;28;20036;-69
2022/10/19 10:42:23;;;;;;;11.13;6.70;;;;;;;;;;5033549;28;20053;-68
2022/10/19 10:44:52;;;;;;;12.95;7.35;;;;;;;;;;5052302;28;20091;-67
2022/10/19 10:47:20;;;;;;;8.48;6.82;;;;;;;;;;5050438;28;20028;-68
2022/10/19 10:49:55;;;;;;;11.98;7.90;;;;;;;;;;5052026;28;20469;-64
2022/10/19 10:52:21;;;;;;;12.73;7.13;;;;;;;;;;5052355;28;20048;-69
2022/10/19 10:54:59;;;;;;;14.93;7.25;;;;;;;;;;5051891;28;20036;-69
2022/10/19 10:57:29;;;;;;;11.35;7.40;;;;;;;;;;5051896;28;20414;-69
2022/10/19 11:00:01;;;;;;;12.20;7.30;;;;;;;;;;5052110;28;20032;-68
2022/10/19 11:02:41;;;;;;;8.40;6.78;;;;;;;;;;5048776;28;20057;-68
2022/10/19 11:05:27;;;;;;;12.35;6.60;;;;;;;;;;5031874;28;20114;-65
2022/10/19 11:08:11;;;;;;;12.38;6.80;;;;;;;;;;5031601;28;20124;-65
2022/10/19 11:11:05;;;;;;;7.88;6.07;;;;;;;;;;5031815;28;20068;-66
2022/10/19 11:14:09;;;;;;;10.50;6.50;;;;;;;;;;5030872;28;20129;-66
2022/10/19 11:16:41;;;;;;;10.13;5.88;;;;;;;;;;5027930;28;20527;-64
2022/10/19 11:19:14;;;;;;;10.27;6.40;;;;;;;;;;5031831;28;20029;-68
2022/10/19 11:22:02;;;;;;;9.85;6.20;;;;;;;;;;5031498;28;20076;-68
2022/10/19 11:24:54;;;;;;;8.93;5.93;;;;;;;;;;5036459;28;20041;-65
2022/10/19 11:27:53;;;;;;;12.38;5.97;;;;;;;;;;5051667;28;20381;-64
2022/10/19 11:30:21;;;;;;;10.88;6.50;;;;;;;;;;5051029;28;20044;-64
2022/10/19 11:33:04;;;;;;;7.05;6.22;;;;;;;;;;5039921;28;20032;-64
2022/10/19 11:35:49;;;;;;;8.80;6.00;;;;;;;;;;5031559;28;20021;-64
2022/10/19 11:38:40;;;;;;;7.78;5.93;;;;;;;;;;5031252;28;20068;-65
2022/10/19 11:41:36;;;;;;;8.00;5.45;;;;;;;;;;5030905;28;20029;-64
2022/10/19 11:44:04;;;;;;;7.55;5.75;;;;;;;;;;5030965;28;20033;-65
2022/10/19 11:46:57;;;;;;;9.48;5.65;;;;;;;;;;5031240;28;20040;-64
2022/10/19 11:49:23;;;;;;;7.85;5.50;;;;;;;;;;5031253;28;20850;-65
2022/10/19 11:52:00;;;;;;;7.13;5.55;;;;;;;;;;5048414;28;20048;-66
2022/10/19 11:54:55;;;;;;;7.10;5.47;;;;;;;;;;5051275;28;20051;-66
2022/10/19 11:57:25;;;;;;;10.80;5.57;;;;;;;;;;5042963;28;20493;-66
2022/10/19 12:00:09;;;;;;;;;;;;;;;;;;5051289;28;20025;-66
2022/10/19 12:02:43;;;;;;;7.97;5.78;;;;;;;;;;5050796;28;20450;-65
2022/10/19 12:05:16;;;;;;;7.22;5.43;;;;;;;;;;5050666;28;20079;-66
2022/10/19 12:07:44;;;;;;;6.00;5.22;;;;;;;;;;5050549;28;20057;-67
2022/10/19 12:10:29;;;;;;;6.05;5.30;;;;;;;;;;5050851;28;20381;-64
2022/10/19 12:12:59;;;;;;;6.70;5.60;;;;;;;;;;5049181;28;20040;-66
2022/10/19 12:15:31;;;;;;;7.45;5.82;;;;;;;;;;5050557;28;20036;-68
2022/10/19 12:18:30;;;;;;;6.20;5.60;;;;;;;;;;5030739;28;20092;-63
2022/10/19 12:21:00;;;;;;;7.78;6.25;;;;;;;;;;5026463;28;20138;-70
2022/10/19 12:23:31;;;;;;;7.20;5.80;;;;;;;;;;5030913;28;20381;-63
2022/10/19 12:25:59;;;;;;;7.55;5.78;;;;;;;;;;5030567;28;20065;-66
2022/10/19 12:28:35;;;;;;;8.13;5.90;;;;;;;;;;5030561;28;20032;-67
2022/10/19 12:31:01;;;;;;;8.18;5.80;;;;;;;;;;5030664;28;20025;-65
2022/10/19 12:33:30;;;;;;;7.72;5.82;;;;;;;;;;5030812;28;20108;-66
2022/10/19 12:36:03;;;;;;;7.72;6.00;;;;;;;;;;5043586;28;20021;-66
2022/10/19 12:38:49;;;;;;;7.00;5.90;;;;;;;;;;5054908;28;20024;-65
2022/10/19 12:41:30;;;;;;;9.00;5.38;;;;;;;;;;5052898;28;20045;-67
2022/10/19 12:44:17;;;;;;;10.10;5.88;;;;;;;;;;5053133;28;20029;-65
2022/10/19 12:46:54;;;;;;;9.05;5.78;;;;;;;;;;5054376;28;20029;-67
2022/10/19 12:49:29;;;;;;;7.20;5.20;;;;;;;;;;5054359;28;20488;-66
2022/10/19 12:51:56;;;;;;;6.80;5.95;;;;;;;;;;5054230;28;20037;-68
2022/10/19 12:54:32;;;;;;;8.45;5.38;;;;;;;;;;5050485;28;20025;-66
2022/10/19 12:57:00;;;;;;;10.85;5.55;;;;;;;;;;5052446;28;20029;-65
2022/10/19 12:59:34;;;;;;;9.15;5.95;;;;;;;;;;5054074;28;20128;-65
2022/10/19 13:02:01;;;;;;;8.43;5.80;;;;;;;;;;5053806;28;20041;-66
2022/10/19 13:04:32;;;;;;;7.10;5.20;;;;;;;;;;5053691;28;20029;-69
2022/10/19 13:07:07;;;;;;;8.40;5.78;;;;;;;;;;5053897;28;20088;-68
2022/10/19 13:09:41;;;;;;;6.75;5.13;;;;;;;;;;5053915;28;20029;-68
2022/10/19 13:12:13;;;;;;;5.88;5.25;;;;;;;;;;5053888;28;20545;-67
2022/10/19 13:14:48;;;;;;;7.32;5.25;;;;;;;;;;5050734;28;20419;-66
2022/10/19 13:17:33;;;;;;;6.25;5.50;;;;;;;;;;5053323;28;20025;-67
2022/10/19 13:20:23;;;;;;;6.93;5.78;;;;;;;;;;5033717;28;20144;-67
2022/10/19 13:22:58;;;;;;;8.55;5.43;;;;;;;;;;5024204;28;20429;-66
2022/10/19 13:25:28;;;;;;;9.43;5.55;;;;;;;;;;5033713;28;20493;-67
2022/10/19 13:27:54;;;;;;;;;;;;;;;;;;5033986;28;20038;-66
2022/10/19 13:30:46;;;;;;;6.28;4.75;;;;;;;;;;5033514;28;19909;-66
2022/10/19 13:33:33;;;;;;;6.43;5.40;;;;;;;;;;5024917;28;20037;-66
2022/10/19 13:35:59;;;;;;;6.55;5.38;;;;;;;;;;5033519;28;20120;-65
2022/10/19 13:38:27;;;;;;;9.07;5.20;;;;;;;;;;5037996;28;20108;-66
2022/10/19 13:40:53;;;;;;;6.53;4.90;;;;;;;;;;5051943;28;20051;-66
2022/10/19 13:43:24;;;;;;;6.97;5.25;;;;;;;;;;5050548;28;20481;-67
2022/10/19 13:46:11;;;;;;;7.55;4.93;;;;;;;;;;5051059;28;20524;-67
2022/10/19 13:49:11;;;;;;;7.85;5.65;;;;;;;;;;5051005;28;20033;-67
2022/10/19 13:51:39;;;;;;;8.35;5.50;;;;;;;;;;5047720;28;20037;-66
2022/10/19 13:54:39;;;;;;;8.38;5.15;;;;;;;;;;5053261;28;20039;-69
2022/10/19 13:57:45;;;;;;;7.63;5.07;;;;;;;;;;5052254;28;20056;-66
2022/10/19 14:00:22;;;;;;;6.45;5.40;;;;;;;;;;5034007;28;20041;-67
2022/10/19 14:03:18;;;;;;;5.82;5.18;;;;;;;;;;5053302;28;20033;-68
2022/10/19 14:06:30;;;;;;;9.93;5.20;;;;;;;;;;5052008;28;20028;-67
2022/10/19 14:09:18;;;;;;;6.22;5.05;;;;;;;;;;5049994;28;20125;-67
2022/10/19 14:11:47;;;;;;;6.88;5.13;;;;;;;;;;5051124;28;20480;-66
2022/10/19 14:14:17;;;;;;;7.65;4.95;;;;;;;;;;5052653;28;20029;-68
2022/10/19 14:16:58;;;;;;;6.28;5.60;;;;;;;;;;5049975;28;20029;-66
2022/10/19 14:19:31;;;;;;;8.70;5.25;;;;;;;;;;5052327;28;20024;-66
2022/10/19 14:22:00;;;;;;;8.02;4.90;;;;;;;;;;5049952;28;20036;-67
2022/10/19 14:24:34;;;;;;;7.00;4.97;;;;;;;;;;5052331;28;20029;-67
2022/10/19 14:27:03;;;;;;;5.97;4.88;;;;;;;;;;5052154;28;20039;-67
2022/10/19 14:29:32;;;;;;;6.28;4.93;;;;;;;;;;5052292;28;20029;-67
2022/10/19 14:31:58;;;;;;;7.55;4.90;;;;;;;;;;5052450;28;20029;-66
2022/10/19 14:34:24;;;;;;;6.57;5.00;;;;;;;;;;5051949;28;20029;-69
2022/10/19 14:36:50;;;;;;;6.22;5.03;;;;;;;;;;5052703;28;20025;-68
2022/10/19 14:39:42;;;;;;;6.43;4.53;;;;;;;;;;5052509;28;20017;-68
2022/10/19 14:42:10;;;;;;;6.72;4.35;;;;;;;;;;5050932;28;20396;-69
2022/10/19 14:44:36;;;;;;;5.30;4.70;;;;;;;;;;5052127;28;20056;-66
2022/10/19 14:47:15;;;;;;;6.03;4.47;;;;;;;;;;5052473;28;20031;-66
2022/10/19 14:49:41;;;;;;;7.97;4.87;;;;;;;;;;5051826;28;20059;-68
2022/10/19 14:52:08;;;;;;;7.00;4.75;;;;;;;;;;5052047;28;20305;-69
2022/10/19 14:54:41;;;;;;;5.07;4.57;;;;;;;;;;5052421;28;20075;-67
2022/10/19 14:57:13;;;;;;;7.22;5.20;;;;;;;;;;5050408;28;20025;-68
2022/10/19 14:59:44;;;;;;;7.93;5.10;;;;;;;;;;5051596;28;20048;-68
2022/10/19 15:02:28;;;;;;;6.63;4.82;;;;;;;;;;5051966;28;20102;-68
2022/10/19 15:04:57;;;;;;;5.22;4.72;;;;;;;;;;5049450;28;20049;-70
2022/10/19 15:07:35;;;;;;;9.60;4.55;;;;;;;;;;5051534;28;20465;-70
2022/10/19 15:10:04;;;;;;;5.68;4.45;;;;;;;;;;5049305;28;20049;-69